Saga Sapphire — 9HOF8 — position and weather

sailwx.info

Track history (hours):
 
Tides and Currents Weather Stations Pressure Air Temp Water Temp Dewpoint Dewpoint Depression Visibility Wind Speed Wind Dir Waves Ship Positions

Saga Sapphire

Last reported at 2015-Jul-02 05:33 UTC. Time now 2015-Jul-02 21:28 UTC.
Position N 49°52' W 003°14'.

Length 200 m; draft 8.5 m.

Type: Passenger vessel. MMSI: 256208000.

Date/timePositionNaut miles runAvg speedWind from/ knotsBaromVisibWave heightAir tempDewpointWater temp
2015-Jul-02 05:33N 49°52' W 003°14'3014.8
2015-Jul-02 03:31N 50°03' W 002°31'1717.2
2015-Jul-02 02:32N 50°08' W 002°06'2218.3
2015-Jul-02 01:21N 50°13' W 001°33'2217.8
2015-Jul-02 00:05N 50°19' W 000°59'1415.8
2015-Jul-01 23:11N 50°23' W 000°38'914.8
2015-Jul-01 22:33N 50°26' W 000°24'1613.6
2015-Jul-01 21:23N 50°30' E 000°00'1012.6
2015-Jul-01 20:33N 50°34' E 000°16'1312.9
2015-Jul-01 19:33N 50°38' E 000°35'1514.7
2015-Jul-01 18:33N 50°46' E 000°55'1716.5
2015-Jul-01 17:33N 50°58' E 001°13'10 9.7
2015-Jul-01 16:31N 51°07' E 001°19'0 0.0
2015-Jul-01 07:28N 51°07' E 001°19'0 0.0
2015-Jul-01 06:25N 51°07' E 001°19'5 6.4
2015-Jul-01 05:33N 51°08' E 001°28'1414.5
2015-Jul-01 04:33N 51°19' E 001°42'1514.9
2015-Jul-01 03:33N 51°32' E 001°52'1414.3
2015-Jul-01 02:33N 51°45' E 002°04'1312.6
2015-Jul-01 01:33N 51°56' E 002°15'1212.1
2015-Jul-01 00:34N 52°07' E 002°20'1312.8
2015-Jun-30 23:33N 52°20' E 002°25'1413.7
2015-Jun-30 22:33N 52°33' E 002°30'1414.2
2015-Jun-30 21:33N 52°47' E 002°36'1414.2
2015-Jun-30 20:33N 53°01' E 002°38'1414.1
2015-Jun-30 19:33N 53°14' E 002°44'1514.7
2015-Jun-30 18:33N 53°28' E 002°52'1414.2
2015-Jun-30 17:33N 53°42' E 003°00'1614.6
2015-Jun-30 16:27N 53°55' E 003°15'1314.8
2015-Jun-30 15:33N 54°07' E 003°25'25515.8
2015-Jun-29 23:27N 58°14' E 005°22'3015.7
2015-Jun-29 21:33N 58°43' E 005°12'1616.1
2015-Jun-29 20:33N 58°59' E 005°12'1111.2
2015-Jun-29 19:34N 59°10' E 005°08'1615.2
2015-Jun-29 18:32N 59°26' E 005°10'  
2015-Jun-25 23:00N 59°00' E 004°06'33815.4 310 / 61020.710.8 0.510.5 5.0
2015-Jun-25 01:00N 53°24' E 002°54'1919.4 230 / 141019.410.8 0.514.412.4
2015-Jun-25 00:00N 53°06' E 002°42'2614.5 230 / 141019.910.8 1.014.712.5
2015-Jun-24 22:12N 52°41' E 002°33'1117.3
2015-Jun-24 21:33N 52°29' E 002°30'1817.5
2015-Jun-24 20:31N 52°12' E 002°20'1717.9
2015-Jun-24 19:33N 51°56' E 002°11'1817.8
2015-Jun-24 18:34N 51°40' E 002°01'1716.9
2015-Jun-24 17:33N 51°25' E 001°46'1616.3
2015-Jun-24 16:33N 51°11' E 001°35'1010.0
2015-Jun-24 15:33N 51°07' E 001°20'1 0.1
2015-Jun-24 09:24N 51°07' E 001°19'0 0.0
2015-Jun-24 08:24N 51°07' E 001°19'0 0.0
2015-Jun-24 07:33N 51°07' E 001°19'0 0.4
2015-Jun-24 06:33N 51°07' E 001°20'8 7.8
2015-Jun-24 05:33N 51°04' E 001°31'1212.1
2015-Jun-24 04:33N 50°52' E 001°26'1313.1
2015-Jun-24 03:34N 50°40' E 001°17'1312.6
2015-Jun-24 02:33N 50°32' E 001°02'1413.4
2015-Jun-24 01:33N 50°27' E 000°43'1813.7
2015-Jun-24 00:13N 50°21' E 000°15'913.4
2015-Jun-23 23:32N 50°19' E 000°02'1513.5
2015-Jun-23 22:28N 50°15' W 000°20'1413.5
2015-Jun-23 21:27N 50°12' W 000°41'2613.3
2015-Jun-23 19:31N 50°05' W 001°20'512.6
2015-Jun-23 19:06N 50°04' W 001°28'34613.5
2015-Jun-22 17:34N 46°04' W 007°41'3015.2
2015-Jun-22 15:33N 45°37' W 008°01'  
Track history (hours):
 
Tides and Currents Weather Stations Pressure Air Temp Water Temp Dewpoint Dewpoint Depression Visibility Wind Speed Wind Dir Waves Ship Positions

Saga Sapphire

Last reported at 2015-Jul-02 05:33 UTC. Time now 2015-Jul-02 21:28 UTC.
Position N 49°52' W 003°14'.

Length 200 m; draft 8.5 m.

Type: Passenger vessel. MMSI: 256208000.

Date/timePositionNaut miles runAvg speedWind from/ knotsBaromVisibWave heightAir tempDewpointWater temp
2015-Jul-02 05:33N 49°52' W 003°14'3014.8
2015-Jul-02 03:31N 50°03' W 002°31'1717.2
2015-Jul-02 02:32N 50°08' W 002°06'2218.3
2015-Jul-02 01:21N 50°13' W 001°33'2217.8
2015-Jul-02 00:05N 50°19' W 000°59'1415.8
2015-Jul-01 23:11N 50°23' W 000°38'914.8
2015-Jul-01 22:33N 50°26' W 000°24'1613.6
2015-Jul-01 21:23N 50°30' E 000°00'1012.6
2015-Jul-01 20:33N 50°34' E 000°16'1312.9
2015-Jul-01 19:33N 50°38' E 000°35'1514.7
2015-Jul-01 18:33N 50°46' E 000°55'1716.5
2015-Jul-01 17:33N 50°58' E 001°13'10 9.7
2015-Jul-01 16:31N 51°07' E 001°19'0 0.0
2015-Jul-01 07:28N 51°07' E 001°19'0 0.0
2015-Jul-01 06:25N 51°07' E 001°19'5 6.4
2015-Jul-01 05:33N 51°08' E 001°28'1414.5
2015-Jul-01 04:33N 51°19' E 001°42'1514.9
2015-Jul-01 03:33N 51°32' E 001°52'1414.3
2015-Jul-01 02:33N 51°45' E 002°04'1312.6
2015-Jul-01 01:33N 51°56' E 002°15'1212.1
2015-Jul-01 00:34N 52°07' E 002°20'1312.8
2015-Jun-30 23:33N 52°20' E 002°25'1413.7
2015-Jun-30 22:33N 52°33' E 002°30'1414.2
2015-Jun-30 21:33N 52°47' E 002°36'1414.2
2015-Jun-30 20:33N 53°01' E 002°38'1414.1
2015-Jun-30 19:33N 53°14' E 002°44'1514.7
2015-Jun-30 18:33N 53°28' E 002°52'1414.2
2015-Jun-30 17:33N 53°42' E 003°00'1614.6
2015-Jun-30 16:27N 53°55' E 003°15'1314.8
2015-Jun-30 15:33N 54°07' E 003°25'25515.8
2015-Jun-29 23:27N 58°14' E 005°22'3015.7
2015-Jun-29 21:33N 58°43' E 005°12'1616.1
2015-Jun-29 20:33N 58°59' E 005°12'1111.2
2015-Jun-29 19:34N 59°10' E 005°08'1615.2
2015-Jun-29 18:32N 59°26' E 005°10'  
2015-Jun-25 23:00N 59°00' E 004°06'33815.4 310 / 61020.710.8 0.510.5 5.0
2015-Jun-25 01:00N 53°24' E 002°54'1919.4 230 / 141019.410.8 0.514.412.4
2015-Jun-25 00:00N 53°06' E 002°42'2614.5 230 / 141019.910.8 1.014.712.5
2015-Jun-24 22:12N 52°41' E 002°33'1117.3
2015-Jun-24 21:33N 52°29' E 002°30'1817.5
2015-Jun-24 20:31N 52°12' E 002°20'1717.9
2015-Jun-24 19:33N 51°56' E 002°11'1817.8
2015-Jun-24 18:34N 51°40' E 002°01'1716.9
2015-Jun-24 17:33N 51°25' E 001°46'1616.3
2015-Jun-24 16:33N 51°11' E 001°35'1010.0
2015-Jun-24 15:33N 51°07' E 001°20'1 0.1
2015-Jun-24 09:24N 51°07' E 001°19'0 0.0
2015-Jun-24 08:24N 51°07' E 001°19'0 0.0
2015-Jun-24 07:33N 51°07' E 001°19'0 0.4
2015-Jun-24 06:33N 51°07' E 001°20'8 7.8
2015-Jun-24 05:33N 51°04' E 001°31'1212.1
2015-Jun-24 04:33N 50°52' E 001°26'1313.1
2015-Jun-24 03:34N 50°40' E 001°17'1312.6
2015-Jun-24 02:33N 50°32' E 001°02'1413.4
2015-Jun-24 01:33N 50°27' E 000°43'1813.7
2015-Jun-24 00:13N 50°21' E 000°15'913.4
2015-Jun-23 23:32N 50°19' E 000°02'1513.5
2015-Jun-23 22:28N 50°15' W 000°20'1413.5
2015-Jun-23 21:27N 50°12' W 000°41'2613.3
2015-Jun-23 19:31N 50°05' W 001°20'512.6
2015-Jun-23 19:06N 50°04' W 001°28'34613.5
2015-Jun-22 17:34N 46°04' W 007°41'3015.2
2015-Jun-22 15:33N 45°37' W 008°01'  

Dump ship's entire track history